sensor_id;sensor_type;location;lat;lon;timestamp;P1;durP1;ratioP1;P2;durP2;ratioP2
55819;SDS011;41747;45.002;39.032;2022-08-30T00:02:42;26.30;;;17.60;;
55819;SDS011;41747;45.002;39.032;2022-08-30T00:05:11;26.33;;;18.07;;
55819;SDS011;41747;45.002;39.032;2022-08-30T00:07:43;29.20;;;17.60;;
55819;SDS011;41747;45.002;39.032;2022-08-30T00:10:13;28.40;;;19.65;;
55819;SDS011;41747;45.002;39.032;2022-08-30T00:12:42;24.50;;;18.15;;
55819;SDS011;41747;45.002;39.032;2022-08-30T00:15:11;28.75;;;19.45;;
55819;SDS011;41747;45.002;39.032;2022-08-30T00:17:41;27.05;;;19.40;;
55819;SDS011;41747;45.002;39.032;2022-08-30T00:20:11;27.95;;;20.10;;
55819;SDS011;41747;45.002;39.032;2022-08-30T00:22:44;32.23;;;20.27;;
55819;SDS011;41747;45.002;39.032;2022-08-30T00:25:15;33.83;;;21.02;;
55819;SDS011;41747;45.002;39.032;2022-08-30T00:27:45;28.47;;;21.15;;
55819;SDS011;41747;45.002;39.032;2022-08-30T00:30:15;34.43;;;21.82;;
55819;SDS011;41747;45.002;39.032;2022-08-30T00:32:45;32.10;;;22.22;;
55819;SDS011;41747;45.002;39.032;2022-08-30T00:35:16;29.65;;;21.62;;
55819;SDS011;41747;45.002;39.032;2022-08-30T00:37:47;34.65;;;23.60;;
55819;SDS011;41747;45.002;39.032;2022-08-30T00:40:17;39.98;;;31.15;;
55819;SDS011;41747;45.002;39.032;2022-08-30T00:42:48;47.27;;;35.83;;
55819;SDS011;41747;45.002;39.032;2022-08-30T00:45:19;43.80;;;34.38;;
55819;SDS011;41747;45.002;39.032;2022-08-30T00:47:52;43.28;;;26.48;;
55819;SDS011;41747;45.002;39.032;2022-08-30T00:50:23;41.45;;;23.95;;
55819;SDS011;41747;45.002;39.032;2022-08-30T00:52:55;33.30;;;22.48;;
55819;SDS011;41747;45.002;39.032;2022-08-30T00:55:26;31.17;;;21.40;;
55819;SDS011;41747;45.002;39.032;2022-08-30T00:57:57;36.03;;;22.77;;
55819;SDS011;41747;45.002;39.032;2022-08-30T01:00:30;41.45;;;22.30;;
55819;SDS011;41747;45.002;39.032;2022-08-30T01:03:00;31.75;;;21.15;;
55819;SDS011;41747;45.002;39.032;2022-08-30T01:05:29;35.35;;;21.75;;
55819;SDS011;41747;45.002;39.032;2022-08-30T01:07:59;33.85;;;21.85;;
55819;SDS011;41747;45.002;39.032;2022-08-30T01:10:29;33.40;;;22.20;;
55819;SDS011;41747;45.002;39.032;2022-08-30T01:13:00;31.57;;;22.70;;
55819;SDS011;41747;45.002;39.032;2022-08-30T01:15:30;33.55;;;22.10;;
55819;SDS011;41747;45.002;39.032;2022-08-30T01:18:01;35.98;;;23.00;;
55819;SDS011;41747;45.002;39.032;2022-08-30T01:20:37;34.40;;;21.73;;
55819;SDS011;41747;45.002;39.032;2022-08-30T01:23:16;35.95;;;22.40;;
55819;SDS011;41747;45.002;39.032;2022-08-30T01:25:45;37.50;;;23.07;;
55819;SDS011;41747;45.002;39.032;2022-08-30T01:28:18;35.20;;;21.85;;
55819;SDS011;41747;45.002;39.032;2022-08-30T01:30:49;34.63;;;23.18;;
55819;SDS011;41747;45.002;39.032;2022-08-30T01:33:19;39.83;;;22.60;;
55819;SDS011;41747;45.002;39.032;2022-08-30T01:35:51;36.95;;;25.45;;
55819;SDS011;41747;45.002;39.032;2022-08-30T01:38:23;38.48;;;27.07;;
55819;SDS011;41747;45.002;39.032;2022-08-30T01:40:57;44.40;;;26.23;;
55819;SDS011;41747;45.002;39.032;2022-08-30T01:43:37;41.60;;;27.13;;
55819;SDS011;41747;45.002;39.032;2022-08-30T01:46:07;40.45;;;26.27;;
55819;SDS011;41747;45.002;39.032;2022-08-30T01:48:57;43.48;;;27.93;;
55819;SDS011;41747;45.002;39.032;2022-08-30T01:51:27;43.78;;;26.37;;
55819;SDS011;41747;45.002;39.032;2022-08-30T01:53:57;39.23;;;25.25;;
55819;SDS011;41747;45.002;39.032;2022-08-30T01:56:27;39.23;;;24.98;;
55819;SDS011;41747;45.002;39.032;2022-08-30T01:58:57;42.40;;;26.82;;
55819;SDS011;41747;45.002;39.032;2022-08-30T02:01:27;39.85;;;24.77;;
55819;SDS011;41747;45.002;39.032;2022-08-30T02:03:58;43.00;;;26.27;;
55819;SDS011;41747;45.002;39.032;2022-08-30T02:06:27;41.70;;;27.35;;
55819;SDS011;41747;45.002;39.032;2022-08-30T02:08:57;41.90;;;24.65;;
55819;SDS011;41747;45.002;39.032;2022-08-30T02:11:27;43.92;;;25.88;;
55819;SDS011;41747;45.002;39.032;2022-08-30T02:13:56;35.50;;;24.43;;
55819;SDS011;41747;45.002;39.032;2022-08-30T02:16:26;38.60;;;24.15;;
55819;SDS011;41747;45.002;39.032;2022-08-30T02:18:55;44.33;;;24.85;;
55819;SDS011;41747;45.002;39.032;2022-08-30T02:21:25;40.67;;;24.02;;
55819;SDS011;41747;45.002;39.032;2022-08-30T02:23:54;37.78;;;25.02;;
55819;SDS011;41747;45.002;39.032;2022-08-30T02:26:24;44.35;;;26.05;;
55819;SDS011;41747;45.002;39.032;2022-08-30T02:28:53;44.40;;;26.05;;
55819;SDS011;41747;45.002;39.032;2022-08-30T02:31:23;44.13;;;26.73;;
55819;SDS011;41747;45.002;39.032;2022-08-30T02:33:53;57.20;;;30.37;;
55819;SDS011;41747;45.002;39.032;2022-08-30T02:36:22;58.17;;;30.25;;
55819;SDS011;41747;45.002;39.032;2022-08-30T02:38:52;54.55;;;30.60;;
55819;SDS011;41747;45.002;39.032;2022-08-30T02:41:22;51.75;;;29.98;;
55819;SDS011;41747;45.002;39.032;2022-08-30T02:43:51;53.52;;;30.40;;
55819;SDS011;41747;45.002;39.032;2022-08-30T02:46:23;56.05;;;30.37;;
55819;SDS011;41747;45.002;39.032;2022-08-30T02:48:52;70.37;;;32.10;;
55819;SDS011;41747;45.002;39.032;2022-08-30T02:51:22;67.22;;;33.78;;
55819;SDS011;41747;45.002;39.032;2022-08-30T02:53:52;68.02;;;33.10;;
55819;SDS011;41747;45.002;39.032;2022-08-30T02:56:21;69.37;;;33.38;;
55819;SDS011;41747;45.002;39.032;2022-08-30T02:58:50;80.32;;;34.10;;
55819;SDS011;41747;45.002;39.032;2022-08-30T03:01:20;70.90;;;33.95;;
55819;SDS011;41747;45.002;39.032;2022-08-30T03:03:50;73.50;;;36.53;;
55819;SDS011;41747;45.002;39.032;2022-08-30T03:06:19;78.62;;;36.63;;
55819;SDS011;41747;45.002;39.032;2022-08-30T03:08:49;92.27;;;35.28;;
55819;SDS011;41747;45.002;39.032;2022-08-30T03:11:19;113.70;;;34.73;;
55819;SDS011;41747;45.002;39.032;2022-08-30T03:13:49;91.92;;;35.52;;
55819;SDS011;41747;45.002;39.032;2022-08-30T03:16:19;93.92;;;35.15;;
55819;SDS011;41747;45.002;39.032;2022-08-30T03:18:49;131.70;;;34.88;;
55819;SDS011;41747;45.002;39.032;2022-08-30T03:21:18;92.72;;;35.05;;
55819;SDS011;41747;45.002;39.032;2022-08-30T03:23:48;142.47;;;34.70;;
55819;SDS011;41747;45.002;39.032;2022-08-30T03:26:17;89.65;;;32.23;;
55819;SDS011;41747;45.002;39.032;2022-08-30T03:28:47;58.63;;;28.00;;
55819;SDS011;41747;45.002;39.032;2022-08-30T03:31:16;79.97;;;30.45;;
55819;SDS011;41747;45.002;39.032;2022-08-30T03:33:46;74.47;;;30.92;;
55819;SDS011;41747;45.002;39.032;2022-08-30T03:36:17;63.92;;;28.67;;
55819;SDS011;41747;45.002;39.032;2022-08-30T03:38:47;44.03;;;26.17;;
55819;SDS011;41747;45.002;39.032;2022-08-30T03:41:17;60.23;;;28.02;;
55819;SDS011;41747;45.002;39.032;2022-08-30T03:43:46;72.20;;;27.50;;
55819;SDS011;41747;45.002;39.032;2022-08-30T03:46:16;53.40;;;26.60;;
55819;SDS011;41747;45.002;39.032;2022-08-30T03:48:45;68.12;;;27.55;;
55819;SDS011;41747;45.002;39.032;2022-08-30T03:51:15;71.12;;;28.77;;
55819;SDS011;41747;45.002;39.032;2022-08-30T03:53:47;63.15;;;27.07;;
55819;SDS011;41747;45.002;39.032;2022-08-30T03:56:16;56.55;;;27.87;;
55819;SDS011;41747;45.002;39.032;2022-08-30T03:58:46;57.53;;;26.55;;
55819;SDS011;41747;45.002;39.032;2022-08-30T04:01:16;60.48;;;24.80;;
55819;SDS011;41747;45.002;39.032;2022-08-30T04:03:45;69.22;;;25.97;;
55819;SDS011;41747;45.002;39.032;2022-08-30T04:06:16;63.08;;;25.57;;
55819;SDS011;41747;45.002;39.032;2022-08-30T04:08:45;61.90;;;24.43;;
55819;SDS011;41747;45.002;39.032;2022-08-30T04:11:15;57.03;;;24.02;;
55819;SDS011;41747;45.002;39.032;2022-08-30T04:13:44;63.30;;;24.57;;
55819;SDS011;41747;45.002;39.032;2022-08-30T04:16:17;78.90;;;25.90;;
55819;SDS011;41747;45.002;39.032;2022-08-30T04:18:46;62.78;;;24.43;;
55819;SDS011;41747;45.002;39.032;2022-08-30T04:21:16;92.02;;;26.87;;
55819;SDS011;41747;45.002;39.032;2022-08-30T04:23:46;78.72;;;25.85;;
55819;SDS011;41747;45.002;39.032;2022-08-30T04:26:16;67.03;;;23.62;;
55819;SDS011;41747;45.002;39.032;2022-08-30T04:28:45;58.65;;;23.87;;
55819;SDS011;41747;45.002;39.032;2022-08-30T04:31:16;60.70;;;22.15;;
55819;SDS011;41747;45.002;39.032;2022-08-30T04:33:46;53.52;;;20.50;;
55819;SDS011;41747;45.002;39.032;2022-08-30T04:36:15;44.20;;;18.15;;
55819;SDS011;41747;45.002;39.032;2022-08-30T04:38:46;40.40;;;18.15;;
55819;SDS011;41747;45.002;39.032;2022-08-30T04:41:16;40.98;;;17.85;;
55819;SDS011;41747;45.002;39.032;2022-08-30T04:43:48;48.73;;;18.60;;
55819;SDS011;41747;45.002;39.032;2022-08-30T04:46:17;41.18;;;17.23;;
55819;SDS011;41747;45.002;39.032;2022-08-30T04:48:47;48.20;;;19.60;;
55819;SDS011;41747;45.002;39.032;2022-08-30T04:51:17;35.78;;;15.98;;
55819;SDS011;41747;45.002;39.032;2022-08-30T04:53:46;33.75;;;16.30;;
55819;SDS011;41747;45.002;39.032;2022-08-30T04:56:17;31.15;;;16.10;;
55819;SDS011;41747;45.002;39.032;2022-08-30T04:58:49;37.83;;;17.40;;
55819;SDS011;41747;45.002;39.032;2022-08-30T05:01:21;34.40;;;16.45;;
55819;SDS011;41747;45.002;39.032;2022-08-30T05:03:52;32.88;;;15.60;;
55819;SDS011;41747;45.002;39.032;2022-08-30T05:06:23;33.18;;;15.30;;
55819;SDS011;41747;45.002;39.032;2022-08-30T05:08:55;36.85;;;16.90;;
55819;SDS011;41747;45.002;39.032;2022-08-30T05:11:26;31.30;;;15.25;;
55819;SDS011;41747;45.002;39.032;2022-08-30T05:13:56;33.60;;;17.75;;
55819;SDS011;41747;45.002;39.032;2022-08-30T05:16:26;31.52;;;15.95;;
55819;SDS011;41747;45.002;39.032;2022-08-30T05:18:55;30.48;;;16.05;;
55819;SDS011;41747;45.002;39.032;2022-08-30T05:21:25;34.60;;;16.97;;
55819;SDS011;41747;45.002;39.032;2022-08-30T05:23:56;34.15;;;17.35;;
55819;SDS011;41747;45.002;39.032;2022-08-30T05:26:28;34.27;;;17.12;;
55819;SDS011;41747;45.002;39.032;2022-08-30T05:28:59;33.08;;;14.73;;
55819;SDS011;41747;45.002;39.032;2022-08-30T05:31:32;30.50;;;14.05;;
55819;SDS011;41747;45.002;39.032;2022-08-30T05:34:02;25.85;;;12.63;;
55819;SDS011;41747;45.002;39.032;2022-08-30T05:36:33;23.75;;;11.55;;
55819;SDS011;41747;45.002;39.032;2022-08-30T05:39:04;27.70;;;10.90;;
55819;SDS011;41747;45.002;39.032;2022-08-30T05:41:35;23.80;;;10.98;;
55819;SDS011;41747;45.002;39.032;2022-08-30T05:44:06;25.62;;;9.93;;
55819;SDS011;41747;45.002;39.032;2022-08-30T05:46:36;24.10;;;10.78;;
55819;SDS011;41747;45.002;39.032;2022-08-30T05:49:07;25.15;;;9.93;;
55819;SDS011;41747;45.002;39.032;2022-08-30T05:51:36;17.67;;;10.10;;
55819;SDS011;41747;45.002;39.032;2022-08-30T05:54:06;24.98;;;11.12;;
55819;SDS011;41747;45.002;39.032;2022-08-30T05:56:36;17.50;;;9.88;;
55819;SDS011;41747;45.002;39.032;2022-08-30T05:59:07;22.67;;;10.03;;
55819;SDS011;41747;45.002;39.032;2022-08-30T06:01:38;20.32;;;10.15;;
55819;SDS011;41747;45.002;39.032;2022-08-30T06:04:11;24.05;;;9.83;;
55819;SDS011;41747;45.002;39.032;2022-08-30T06:06:41;22.58;;;10.30;;
55819;SDS011;41747;45.002;39.032;2022-08-30T06:09:12;21.20;;;9.98;;
55819;SDS011;41747;45.002;39.032;2022-08-30T06:11:42;17.40;;;9.15;;
55819;SDS011;41747;45.002;39.032;2022-08-30T06:14:12;19.05;;;8.75;;
55819;SDS011;41747;45.002;39.032;2022-08-30T06:16:42;25.20;;;9.33;;
55819;SDS011;41747;45.002;39.032;2022-08-30T06:19:12;21.87;;;9.80;;
55819;SDS011;41747;45.002;39.032;2022-08-30T06:21:42;23.62;;;8.65;;
55819;SDS011;41747;45.002;39.032;2022-08-30T06:24:16;14.55;;;7.78;;
55819;SDS011;41747;45.002;39.032;2022-08-30T06:26:46;17.77;;;8.10;;
55819;SDS011;41747;45.002;39.032;2022-08-30T06:29:16;19.95;;;8.00;;
55819;SDS011;41747;45.002;39.032;2022-08-30T06:31:48;19.20;;;8.08;;
55819;SDS011;41747;45.002;39.032;2022-08-30T06:34:17;19.48;;;7.37;;
55819;SDS011;41747;45.002;39.032;2022-08-30T06:36:47;19.45;;;7.28;;
55819;SDS011;41747;45.002;39.032;2022-08-30T06:39:17;54.20;;;20.25;;
55819;SDS011;41747;45.002;39.032;2022-08-30T06:41:46;14.58;;;6.97;;
55819;SDS011;41747;45.002;39.032;2022-08-30T06:44:26;18.90;;;6.95;;
55819;SDS011;41747;45.002;39.032;2022-08-30T06:46:55;14.18;;;6.80;;
55819;SDS011;41747;45.002;39.032;2022-08-30T06:49:25;13.35;;;6.62;;
55819;SDS011;41747;45.002;39.032;2022-08-30T06:51:54;15.95;;;6.90;;
55819;SDS011;41747;45.002;39.032;2022-08-30T06:54:23;13.78;;;7.40;;
55819;SDS011;41747;45.002;39.032;2022-08-30T06:56:53;15.13;;;7.00;;
55819;SDS011;41747;45.002;39.032;2022-08-30T06:59:22;12.30;;;6.53;;
55819;SDS011;41747;45.002;39.032;2022-08-30T07:01:52;18.30;;;6.72;;
55819;SDS011;41747;45.002;39.032;2022-08-30T07:04:22;9.65;;;5.40;;
55819;SDS011;41747;45.002;39.032;2022-08-30T07:06:52;10.55;;;5.10;;
55819;SDS011;41747;45.002;39.032;2022-08-30T07:09:22;13.95;;;5.40;;
55819;SDS011;41747;45.002;39.032;2022-08-30T07:11:51;13.90;;;6.40;;
55819;SDS011;41747;45.002;39.032;2022-08-30T07:14:21;19.60;;;5.62;;
55819;SDS011;41747;45.002;39.032;2022-08-30T07:16:50;12.80;;;5.45;;
55819;SDS011;41747;45.002;39.032;2022-08-30T07:19:21;10.98;;;4.45;;
55819;SDS011;41747;45.002;39.032;2022-08-30T07:21:51;14.25;;;5.00;;
55819;SDS011;41747;45.002;39.032;2022-08-30T07:24:20;12.65;;;5.00;;
55819;SDS011;41747;45.002;39.032;2022-08-30T07:26:51;7.90;;;4.42;;
55819;SDS011;41747;45.002;39.032;2022-08-30T07:29:20;8.73;;;4.00;;
55819;SDS011;41747;45.002;39.032;2022-08-30T07:31:50;10.58;;;3.98;;
55819;SDS011;41747;45.002;39.032;2022-08-30T07:34:19;11.03;;;4.55;;
55819;SDS011;41747;45.002;39.032;2022-08-30T07:36:48;8.28;;;3.65;;
55819;SDS011;41747;45.002;39.032;2022-08-30T07:39:18;9.40;;;4.15;;
55819;SDS011;41747;45.002;39.032;2022-08-30T07:41:49;11.48;;;3.95;;
55819;SDS011;41747;45.002;39.032;2022-08-30T07:44:19;9.33;;;4.30;;
55819;SDS011;41747;45.002;39.032;2022-08-30T07:46:49;10.23;;;4.00;;
55819;SDS011;41747;45.002;39.032;2022-08-30T07:49:18;9.60;;;3.60;;
55819;SDS011;41747;45.002;39.032;2022-08-30T07:51:48;7.58;;;3.95;;
55819;SDS011;41747;45.002;39.032;2022-08-30T07:54:18;8.60;;;4.75;;
55819;SDS011;41747;45.002;39.032;2022-08-30T07:56:48;7.83;;;4.40;;
55819;SDS011;41747;45.002;39.032;2022-08-30T07:59:19;9.40;;;4.33;;
55819;SDS011;41747;45.002;39.032;2022-08-30T08:01:48;9.28;;;3.55;;
55819;SDS011;41747;45.002;39.032;2022-08-30T08:04:18;7.00;;;3.95;;
55819;SDS011;41747;45.002;39.032;2022-08-30T08:06:47;7.75;;;3.52;;
55819;SDS011;41747;45.002;39.032;2022-08-30T08:09:16;11.57;;;3.98;;
55819;SDS011;41747;45.002;39.032;2022-08-30T08:11:46;10.78;;;3.55;;
55819;SDS011;41747;45.002;39.032;2022-08-30T08:14:15;6.80;;;3.30;;
55819;SDS011;41747;45.002;39.032;2022-08-30T08:16:45;11.93;;;3.62;;
55819;SDS011;41747;45.002;39.032;2022-08-30T08:19:14;8.45;;;3.67;;
55819;SDS011;41747;45.002;39.032;2022-08-30T08:21:45;10.95;;;3.27;;
55819;SDS011;41747;45.002;39.032;2022-08-30T08:24:15;9.98;;;3.70;;
55819;SDS011;41747;45.002;39.032;2022-08-30T08:26:44;8.88;;;4.03;;
55819;SDS011;41747;45.002;39.032;2022-08-30T08:29:14;7.78;;;3.90;;
55819;SDS011;41747;45.002;39.032;2022-08-30T08:31:44;8.53;;;3.70;;
55819;SDS011;41747;45.002;39.032;2022-08-30T08:34:13;11.40;;;4.00;;
55819;SDS011;41747;45.002;39.032;2022-08-30T08:36:44;9.05;;;3.60;;
55819;SDS011;41747;45.002;39.032;2022-08-30T08:39:15;6.25;;;3.65;;
55819;SDS011;41747;45.002;39.032;2022-08-30T08:42:03;8.88;;;3.60;;
55819;SDS011;41747;45.002;39.032;2022-08-30T08:50:01;10.38;;;3.72;;
55819;SDS011;41747;45.002;39.032;2022-08-30T08:52:39;8.15;;;3.85;;
55819;SDS011;41747;45.002;39.032;2022-08-30T08:55:42;8.20;;;4.37;;
55819;SDS011;41747;45.002;39.032;2022-08-30T09:00:54;11.97;;;3.70;;
55819;SDS011;41747;45.002;39.032;2022-08-30T09:03:25;10.13;;;3.98;;
55819;SDS011;41747;45.002;39.032;2022-08-30T09:05:56;9.55;;;4.10;;
55819;SDS011;41747;45.002;39.032;2022-08-30T09:08:26;12.75;;;4.12;;
55819;SDS011;41747;45.002;39.032;2022-08-30T09:11:02;9.95;;;4.00;;
55819;SDS011;41747;45.002;39.032;2022-08-30T09:13:28;9.03;;;4.17;;
55819;SDS011;41747;45.002;39.032;2022-08-30T09:15:58;11.30;;;4.33;;
55819;SDS011;41747;45.002;39.032;2022-08-30T09:21:13;9.03;;;3.80;;
55819;SDS011;41747;45.002;39.032;2022-08-30T09:23:48;11.03;;;3.83;;
55819;SDS011;41747;45.002;39.032;2022-08-30T09:26:38;11.55;;;4.03;;
55819;SDS011;41747;45.002;39.032;2022-08-30T09:29:03;8.28;;;3.92;;
55819;SDS011;41747;45.002;39.032;2022-08-30T09:31:56;11.25;;;4.03;;
55819;SDS011;41747;45.002;39.032;2022-08-30T09:34:18;8.73;;;4.42;;
55819;SDS011;41747;45.002;39.032;2022-08-30T09:36:51;13.22;;;4.58;;
55819;SDS011;41747;45.002;39.032;2022-08-30T09:39:25;11.80;;;4.58;;
55819;SDS011;41747;45.002;39.032;2022-08-30T09:44:44;16.73;;;4.90;;
55819;SDS011;41747;45.002;39.032;2022-08-30T09:47:29;12.10;;;4.87;;
55819;SDS011;41747;45.002;39.032;2022-08-30T09:50:06;13.80;;;4.72;;
55819;SDS011;41747;45.002;39.032;2022-08-30T09:55:46;10.20;;;5.00;;
55819;SDS011;41747;45.002;39.032;2022-08-30T10:06:51;9.65;;;5.05;;
55819;SDS011;41747;45.002;39.032;2022-08-30T10:12:17;12.80;;;5.30;;
55819;SDS011;41747;45.002;39.032;2022-08-30T10:15:05;12.40;;;5.42;;
55819;SDS011;41747;45.002;39.032;2022-08-30T10:17:56;11.88;;;5.15;;
55819;SDS011;41747;45.002;39.032;2022-08-30T10:20:50;14.18;;;5.25;;
55819;SDS011;41747;45.002;39.032;2022-08-30T10:23:24;9.25;;;5.78;;
55819;SDS011;41747;45.002;39.032;2022-08-30T10:25:54;12.80;;;5.58;;
55819;SDS011;41747;45.002;39.032;2022-08-30T10:31:06;10.93;;;5.58;;
55819;SDS011;41747;45.002;39.032;2022-08-30T10:33:37;10.75;;;5.12;;
55819;SDS011;41747;45.002;39.032;2022-08-30T10:36:09;15.40;;;8.68;;
55819;SDS011;41747;45.002;39.032;2022-08-30T10:38:51;14.30;;;5.67;;
55819;SDS011;41747;45.002;39.032;2022-08-30T10:44:07;11.78;;;5.60;;
55819;SDS011;41747;45.002;39.032;2022-08-30T10:49:41;15.45;;;6.33;;
55819;SDS011;41747;45.002;39.032;2022-08-30T10:55:04;13.58;;;5.65;;
55819;SDS011;41747;45.002;39.032;2022-08-30T10:57:35;11.88;;;5.65;;
55819;SDS011;41747;45.002;39.032;2022-08-30T11:00:07;12.88;;;5.40;;
55819;SDS011;41747;45.002;39.032;2022-08-30T11:02:56;13.08;;;4.90;;
55819;SDS011;41747;45.002;39.032;2022-08-30T11:13:30;12.05;;;5.53;;
55819;SDS011;41747;45.002;39.032;2022-08-30T11:18:42;14.07;;;6.37;;
55819;SDS011;41747;45.002;39.032;2022-08-30T11:42:46;12.68;;;5.55;;
55819;SDS011;41747;45.002;39.032;2022-08-30T11:47:58;13.62;;;5.90;;
55819;SDS011;41747;45.002;39.032;2022-08-30T11:55:57;14.43;;;5.80;;
55819;SDS011;41747;45.002;39.032;2022-08-30T11:58:35;11.80;;;5.62;;
55819;SDS011;41747;45.002;39.032;2022-08-30T12:04:06;10.40;;;5.70;;
55819;SDS011;41747;45.002;39.032;2022-08-30T12:14:43;17.60;;;6.42;;
55819;SDS011;41747;45.002;39.032;2022-08-30T12:17:00;14.13;;;6.05;;
55819;SDS011;41747;45.002;39.032;2022-08-30T12:19:49;14.50;;;5.92;;
55819;SDS011;41747;45.002;39.032;2022-08-30T12:22:20;15.83;;;6.53;;
55819;SDS011;41747;45.002;39.032;2022-08-30T12:24:51;11.68;;;6.35;;
55819;SDS011;41747;45.002;39.032;2022-08-30T12:27:26;13.70;;;6.40;;
55819;SDS011;41747;45.002;39.032;2022-08-30T12:29:59;13.95;;;5.80;;
55819;SDS011;41747;45.002;39.032;2022-08-30T12:32:29;14.00;;;6.35;;
55819;SDS011;41747;45.002;39.032;2022-08-30T12:35:00;13.62;;;6.35;;
55819;SDS011;41747;45.002;39.032;2022-08-30T12:37:36;10.20;;;5.58;;
55819;SDS011;41747;45.002;39.032;2022-08-30T12:40:08;16.30;;;6.92;;
55819;SDS011;41747;45.002;39.032;2022-08-30T12:42:53;16.27;;;7.00;;
55819;SDS011;41747;45.002;39.032;2022-08-30T12:45:27;10.80;;;5.97;;
55819;SDS011;41747;45.002;39.032;2022-08-30T12:48:00;15.55;;;6.30;;
55819;SDS011;41747;45.002;39.032;2022-08-30T12:50:42;11.50;;;6.00;;
55819;SDS011;41747;45.002;39.032;2022-08-30T12:53:13;13.62;;;5.37;;
55819;SDS011;41747;45.002;39.032;2022-08-30T12:55:53;16.25;;;6.15;;
55819;SDS011;41747;45.002;39.032;2022-08-30T12:58:39;13.43;;;5.58;;
55819;SDS011;41747;45.002;39.032;2022-08-30T13:01:14;11.25;;;5.80;;
55819;SDS011;41747;45.002;39.032;2022-08-30T13:03:55;13.35;;;5.78;;
55819;SDS011;41747;45.002;39.032;2022-08-30T13:06:40;12.58;;;5.72;;
55819;SDS011;41747;45.002;39.032;2022-08-30T13:09:21;12.65;;;5.65;;
55819;SDS011;41747;45.002;39.032;2022-08-30T13:12:05;14.00;;;6.20;;
55819;SDS011;41747;45.002;39.032;2022-08-30T13:14:40;14.10;;;6.60;;
55819;SDS011;41747;45.002;39.032;2022-08-30T13:17:21;12.03;;;5.72;;
55819;SDS011;41747;45.002;39.032;2022-08-30T13:19:56;13.22;;;6.00;;
55819;SDS011;41747;45.002;39.032;2022-08-30T13:22:36;12.35;;;5.90;;
55819;SDS011;41747;45.002;39.032;2022-08-30T13:25:10;15.98;;;6.22;;
55819;SDS011;41747;45.002;39.032;2022-08-30T13:27:39;15.00;;;5.58;;
55819;SDS011;41747;45.002;39.032;2022-08-30T13:30:09;20.00;;;6.15;;
55819;SDS011;41747;45.002;39.032;2022-08-30T13:32:42;14.93;;;6.97;;
55819;SDS011;41747;45.002;39.032;2022-08-30T13:35:11;15.00;;;5.85;;
55819;SDS011;41747;45.002;39.032;2022-08-30T13:37:41;14.30;;;5.58;;
55819;SDS011;41747;45.002;39.032;2022-08-30T13:40:12;14.75;;;6.20;;
55819;SDS011;41747;45.002;39.032;2022-08-30T13:42:43;11.40;;;6.20;;
55819;SDS011;41747;45.002;39.032;2022-08-30T13:45:13;10.30;;;5.25;;
55819;SDS011;41747;45.002;39.032;2022-08-30T13:47:43;16.93;;;6.12;;
55819;SDS011;41747;45.002;39.032;2022-08-30T13:50:14;11.33;;;5.62;;
55819;SDS011;41747;45.002;39.032;2022-08-30T13:52:45;9.93;;;5.60;;
55819;SDS011;41747;45.002;39.032;2022-08-30T13:55:14;11.75;;;5.87;;
55819;SDS011;41747;45.002;39.032;2022-08-30T13:57:44;16.32;;;5.87;;
55819;SDS011;41747;45.002;39.032;2022-08-30T14:00:15;14.70;;;5.53;;
55819;SDS011;41747;45.002;39.032;2022-08-30T14:02:46;14.20;;;5.40;;
55819;SDS011;41747;45.002;39.032;2022-08-30T14:05:16;11.90;;;5.50;;
55819;SDS011;41747;45.002;39.032;2022-08-30T14:07:46;13.83;;;5.58;;
55819;SDS011;41747;45.002;39.032;2022-08-30T14:10:22;11.48;;;5.58;;
55819;SDS011;41747;45.002;39.032;2022-08-30T14:12:46;12.03;;;5.72;;
55819;SDS011;41747;45.002;39.032;2022-08-30T14:15:16;11.38;;;5.33;;
55819;SDS011;41747;45.002;39.032;2022-08-30T14:17:46;11.70;;;5.00;;
55819;SDS011;41747;45.002;39.032;2022-08-30T14:20:15;16.45;;;5.50;;
55819;SDS011;41747;45.002;39.032;2022-08-30T14:22:45;13.85;;;5.42;;
55819;SDS011;41747;45.002;39.032;2022-08-30T14:25:15;11.38;;;5.25;;
55819;SDS011;41747;45.002;39.032;2022-08-30T14:27:44;11.00;;;5.72;;
55819;SDS011;41747;45.002;39.032;2022-08-30T14:30:15;15.13;;;5.40;;
55819;SDS011;41747;45.002;39.032;2022-08-30T14:32:44;10.93;;;5.15;;
55819;SDS011;41747;45.002;39.032;2022-08-30T14:35:14;16.52;;;5.45;;
55819;SDS011;41747;45.002;39.032;2022-08-30T14:37:45;12.65;;;5.67;;
55819;SDS011;41747;45.002;39.032;2022-08-30T14:40:19;10.50;;;5.33;;
55819;SDS011;41747;45.002;39.032;2022-08-30T14:42:48;12.37;;;5.42;;
55819;SDS011;41747;45.002;39.032;2022-08-30T14:45:17;14.15;;;5.62;;
55819;SDS011;41747;45.002;39.032;2022-08-30T14:47:47;13.30;;;6.25;;
55819;SDS011;41747;45.002;39.032;2022-08-30T14:50:17;16.87;;;5.62;;
55819;SDS011;41747;45.002;39.032;2022-08-30T14:52:46;12.58;;;5.53;;
55819;SDS011;41747;45.002;39.032;2022-08-30T14:55:16;11.10;;;5.08;;
55819;SDS011;41747;45.002;39.032;2022-08-30T14:57:46;13.10;;;5.42;;
55819;SDS011;41747;45.002;39.032;2022-08-30T15:00:17;10.50;;;5.05;;
55819;SDS011;41747;45.002;39.032;2022-08-30T15:02:47;10.28;;;5.40;;
55819;SDS011;41747;45.002;39.032;2022-08-30T15:05:17;13.85;;;5.47;;
55819;SDS011;41747;45.002;39.032;2022-08-30T15:07:47;16.27;;;5.58;;
55819;SDS011;41747;45.002;39.032;2022-08-30T15:10:18;13.03;;;4.75;;
55819;SDS011;41747;45.002;39.032;2022-08-30T15:12:50;11.83;;;5.35;;
55819;SDS011;41747;45.002;39.032;2022-08-30T15:15:19;11.03;;;5.15;;
55819;SDS011;41747;45.002;39.032;2022-08-30T15:17:49;11.18;;;4.78;;
55819;SDS011;41747;45.002;39.032;2022-08-30T15:20:19;11.20;;;5.03;;
55819;SDS011;41747;45.002;39.032;2022-08-30T15:22:48;11.65;;;5.95;;
55819;SDS011;41747;45.002;39.032;2022-08-30T15:25:18;11.20;;;5.17;;
55819;SDS011;41747;45.002;39.032;2022-08-30T15:27:47;13.25;;;5.05;;
55819;SDS011;41747;45.002;39.032;2022-08-30T15:30:16;12.33;;;4.92;;
55819;SDS011;41747;45.002;39.032;2022-08-30T15:32:46;10.88;;;4.90;;
55819;SDS011;41747;45.002;39.032;2022-08-30T15:35:16;12.20;;;4.90;;
55819;SDS011;41747;45.002;39.032;2022-08-30T15:37:46;11.15;;;4.78;;
55819;SDS011;41747;45.002;39.032;2022-08-30T15:40:15;14.03;;;5.80;;
55819;SDS011;41747;45.002;39.032;2022-08-30T15:42:45;15.90;;;4.90;;
55819;SDS011;41747;45.002;39.032;2022-08-30T15:45:14;15.50;;;5.60;;
55819;SDS011;41747;45.002;39.032;2022-08-30T15:47:51;14.85;;;5.30;;
55819;SDS011;41747;45.002;39.032;2022-08-30T15:50:21;16.25;;;5.25;;
55819;SDS011;41747;45.002;39.032;2022-08-30T15:52:54;11.55;;;5.50;;
55819;SDS011;41747;45.002;39.032;2022-08-30T15:55:23;11.83;;;4.92;;
55819;SDS011;41747;45.002;39.032;2022-08-30T15:57:53;12.63;;;5.03;;
55819;SDS011;41747;45.002;39.032;2022-08-30T16:00:23;11.53;;;4.75;;
55819;SDS011;41747;45.002;39.032;2022-08-30T16:02:52;11.38;;;4.87;;
55819;SDS011;41747;45.002;39.032;2022-08-30T16:05:22;10.03;;;5.08;;
55819;SDS011;41747;45.002;39.032;2022-08-30T16:07:51;9.45;;;5.05;;
55819;SDS011;41747;45.002;39.032;2022-08-30T16:10:21;16.95;;;5.10;;
55819;SDS011;41747;45.002;39.032;2022-08-30T16:12:50;16.42;;;6.67;;
55819;SDS011;41747;45.002;39.032;2022-08-30T16:15:20;14.15;;;7.30;;